createdAt,value
2023-01-22T00:02:59.019Z,13.02
2023-01-22T00:06:02.238Z,11.50
2023-01-22T00:09:04.259Z,11.48
2023-01-22T00:12:06.353Z,10.80
2023-01-22T00:15:08.977Z,11.88
2023-01-22T00:18:10.737Z,11.05
2023-01-22T00:21:14.005Z,10.68
2023-01-22T00:24:15.763Z,10.43
2023-01-22T00:27:17.499Z,10.93
2023-01-22T00:30:19.970Z,11.40
2023-01-22T00:33:21.873Z,11.50
2023-01-22T00:36:25.157Z,12.27
2023-01-22T00:39:26.943Z,11.30
2023-01-22T00:42:28.681Z,12.75
2023-01-22T00:45:30.473Z,12.35
2023-01-22T00:48:32.281Z,12.32
2023-01-22T00:51:35.579Z,12.35
2023-01-22T00:54:37.336Z,10.20
2023-01-22T00:57:39.112Z,11.48
2023-01-22T01:00:40.895Z,11.48
2023-01-22T01:03:43.135Z,12.57
2023-01-22T01:06:46.371Z,12.43
2023-01-22T01:09:48.144Z,11.25
2023-01-22T01:12:49.874Z,12.18
2023-01-22T01:15:58.964Z,11.68
2023-01-22T01:19:02.100Z,12.48
2023-01-22T01:22:05.235Z,12.55
2023-01-22T01:25:07.377Z,12.00
2023-01-22T01:28:09.152Z,11.30
2023-01-22T01:31:12.851Z,11.38
2023-01-22T01:34:14.686Z,11.43
2023-01-22T01:37:17.858Z,11.45
2023-01-22T01:40:20.008Z,10.60
2023-01-22T01:43:21.938Z,10.60
2023-01-22T01:46:25.219Z,10.38
2023-01-22T01:49:31.273Z,11.40
2023-01-22T01:52:34.515Z,10.93
2023-01-22T01:55:39.491Z,10.68
2023-01-22T01:58:43.324Z,10.45
2023-01-22T02:01:47.763Z,10.52
2023-01-22T02:04:50.818Z,10.00
2023-01-22T02:07:54.168Z,10.40
2023-01-22T02:10:59.167Z,9.75
2023-01-22T02:14:04.550Z,10.82
2023-01-22T02:17:07.926Z,9.50
2023-01-22T02:20:11.053Z,9.30
2023-01-22T02:23:14.209Z,9.82
2023-01-22T02:26:15.989Z,9.82
2023-01-22T02:29:17.763Z,9.43
2023-01-22T02:32:19.598Z,9.93
2023-01-22T02:35:21.427Z,10.70
2023-01-22T02:38:24.627Z,11.07
2023-01-22T02:41:27.475Z,11.85
2023-01-22T02:44:29.330Z,11.52
2023-01-22T02:47:31.044Z,12.52
2023-01-22T02:50:32.881Z,12.15
2023-01-22T02:53:36.018Z,11.95
2023-01-22T02:56:37.851Z,12.77
2023-01-22T02:59:39.609Z,12.75
2023-01-22T03:02:41.374Z,12.55
2023-01-22T03:05:49.691Z,13.60
2023-01-22T03:08:55.535Z,12.77
2023-01-22T03:11:57.945Z,13.02
2023-01-22T03:14:59.774Z,11.27
2023-01-22T03:18:01.585Z,11.50
2023-01-22T03:21:06.021Z,11.05
2023-01-22T03:24:09.743Z,11.13
2023-01-22T03:27:11.528Z,10.70
2023-01-22T03:30:13.460Z,10.80
2023-01-22T03:33:15.245Z,10.48
2023-01-22T03:36:16.981Z,10.57
2023-01-22T03:39:20.210Z,10.05
2023-01-22T03:42:24.834Z,10.15
2023-01-22T03:45:26.597Z,10.25
2023-01-22T03:48:28.976Z,10.80
2023-01-22T03:51:30.698Z,10.10
2023-01-22T03:54:33.833Z,9.02
2023-01-22T03:57:35.578Z,10.50
2023-01-22T04:00:39.216Z,11.68
2023-01-22T04:03:41.548Z,12.07
2023-01-22T04:06:43.512Z,10.77
2023-01-22T04:09:46.662Z,10.20
2023-01-22T04:12:48.444Z,11.02
2023-01-22T04:15:50.251Z,12.13
2023-01-22T04:18:52.048Z,12.18
2023-01-22T04:21:53.858Z,12.68
2023-01-22T04:24:57.091Z,11.68
2023-01-22T04:27:58.931Z,11.85
2023-01-22T04:31:00.988Z,12.63
2023-01-22T04:34:02.870Z,13.13
2023-01-22T04:37:04.612Z,12.13
2023-01-22T04:40:09.642Z,13.30
2023-01-22T04:43:11.914Z,15.57
2023-01-22T04:46:13.735Z,13.88
2023-01-22T04:49:15.528Z,11.27
2023-01-22T04:52:17.434Z,10.38
2023-01-22T04:55:20.695Z,10.43
2023-01-22T04:58:22.502Z,14.20
2023-01-22T05:01:24.528Z,17.25
2023-01-22T05:04:26.567Z,17.83
2023-01-22T05:07:28.413Z,15.35
2023-01-22T05:10:31.633Z,14.23
2023-01-22T05:13:33.381Z,11.20
2023-01-22T05:16:35.207Z,11.30
2023-01-22T05:19:37.044Z,14.90
2023-01-22T05:22:38.825Z,14.52
2023-01-22T05:25:47.558Z,12.80
2023-01-22T05:28:49.322Z,13.32
2023-01-22T05:31:51.159Z,12.27
2023-01-22T05:34:52.909Z,13.35
2023-01-22T05:37:55.997Z,13.68
2023-01-22T05:40:59.309Z,13.13
2023-01-22T05:44:01.441Z,12.02
2023-01-22T05:47:03.316Z,12.77
2023-01-22T05:50:05.869Z,10.80
2023-01-22T05:53:08.144Z,10.50
2023-01-22T05:56:11.316Z,11.77
2023-01-22T05:59:13.328Z,13.38
2023-01-22T06:02:15.170Z,12.20
2023-01-22T06:05:17.081Z,13.15
2023-01-22T06:08:18.921Z,11.60
2023-01-22T06:11:22.230Z,37.97
2023-01-22T06:14:24.010Z,23.42
2023-01-22T06:17:25.791Z,17.83
2023-01-22T06:20:27.594Z,22.45
2023-01-22T06:23:29.548Z,27.60
2023-01-22T06:26:32.711Z,67.05
2023-01-22T06:29:34.455Z,86.35
2023-01-22T06:32:36.207Z,16.70
2023-01-22T06:35:37.955Z,15.48
2023-01-22T06:38:39.712Z,13.68
2023-01-22T06:41:42.824Z,12.48
2023-01-22T06:44:44.548Z,12.48
2023-01-22T06:47:46.738Z,14.40
2023-01-22T06:50:48.855Z,14.05
2023-01-22T06:53:50.851Z,15.27
2023-01-22T06:56:54.041Z,14.73
2023-01-22T06:59:55.912Z,14.50
2023-01-22T07:02:57.656Z,14.02
2023-01-22T07:06:01.000Z,14.50
2023-01-22T07:09:02.841Z,16.08
2023-01-22T07:12:06.692Z,44.03
2023-01-22T07:15:09.094Z,39.30
2023-01-22T07:18:11.589Z,20.88
2023-01-22T07:21:13.363Z,14.45
2023-01-22T07:24:15.291Z,14.55
2023-01-22T07:27:18.586Z,15.18
2023-01-22T07:30:20.793Z,14.07
2023-01-22T07:33:22.784Z,13.55
2023-01-22T07:36:24.661Z,15.00
2023-01-22T07:39:26.470Z,14.27
2023-01-22T07:42:29.558Z,15.63
2023-01-22T07:45:31.361Z,26.73
2023-01-22T07:48:33.197Z,21.90
2023-01-22T07:51:35.565Z,22.75
2023-01-22T07:54:37.456Z,18.63
2023-01-22T07:57:40.572Z,16.60
2023-01-22T08:00:42.515Z,14.45
2023-01-22T08:03:44.618Z,16.80
2023-01-22T08:06:46.468Z,15.43
2023-01-22T08:09:48.270Z,16.10
2023-01-22T08:12:51.509Z,15.68
2023-01-22T08:15:53.380Z,16.63
2023-01-22T08:18:55.215Z,15.60
2023-01-22T08:21:57.203Z,17.67
2023-01-22T08:24:59.090Z,15.57
2023-01-22T08:28:04.345Z,19.80
2023-01-22T08:31:09.400Z,19.20
2023-01-22T08:34:13.227Z,18.75
2023-01-22T08:37:15.022Z,16.48
2023-01-22T08:40:18.635Z,17.00
2023-01-22T08:43:21.928Z,17.38
2023-01-22T08:46:23.784Z,15.90
2023-01-22T08:49:25.686Z,15.45
2023-01-22T08:52:27.681Z,15.07
2023-01-22T08:55:29.572Z,15.20
2023-01-22T08:58:32.818Z,14.77
2023-01-22T09:01:34.634Z,16.13
2023-01-22T09:04:36.461Z,14.52
2023-01-22T09:07:38.305Z,14.23
2023-01-22T09:10:40.844Z,15.80
2023-01-22T09:13:44.156Z,16.02
2023-01-22T09:16:46.032Z,16.05
2023-01-22T09:19:47.900Z,16.40
2023-01-22T09:22:49.790Z,16.35
2023-01-22T09:25:51.586Z,16.13
2023-01-22T09:28:54.757Z,16.00
2023-01-22T09:31:56.688Z,16.92
2023-01-22T09:34:58.490Z,15.05
2023-01-22T09:38:00.240Z,13.13
2023-01-22T09:41:07.088Z,13.27
2023-01-22T09:44:18.012Z,14.63
2023-01-22T09:47:26.415Z,12.50
2023-01-22T09:50:32.203Z,14.10
2023-01-22T09:53:34.796Z,12.77
2023-01-22T09:56:43.746Z,13.68
2023-01-22T09:59:49.215Z,13.27
2023-01-22T10:02:58.025Z,13.05
2023-01-22T10:06:03.141Z,12.80
2023-01-22T10:09:13.185Z,15.82
2023-01-22T10:12:14.923Z,13.02
2023-01-22T10:15:22.630Z,14.90
2023-01-22T10:18:33.364Z,14.38
2023-01-22T10:21:42.235Z,13.15
2023-01-22T10:24:44.004Z,12.93
2023-01-22T10:27:46.632Z,14.15
2023-01-22T10:30:50.366Z,14.52
2023-01-22T10:33:57.406Z,13.77
2023-01-22T10:37:01.944Z,14.50
2023-01-22T10:40:04.056Z,14.07
2023-01-22T10:43:10.485Z,14.52
2023-01-22T10:46:20.012Z,14.98
2023-01-22T10:49:23.917Z,14.68
2023-01-22T10:52:34.766Z,16.08
2023-01-22T10:55:41.885Z,14.57
2023-01-22T10:58:47.418Z,13.25
2023-01-22T11:01:57.473Z,13.52
2023-01-22T11:05:07.892Z,13.55
2023-01-22T11:08:15.362Z,14.85
2023-01-22T11:11:23.614Z,13.32
2023-01-22T11:14:29.702Z,14.97
2023-01-22T11:17:40.462Z,16.23
2023-01-22T11:20:47.684Z,15.45
2023-01-22T11:23:55.862Z,14.10
2023-01-22T11:27:15.398Z,16.80
2023-01-22T11:33:49.575Z,15.07
2023-01-22T11:37:00.363Z,14.60
2023-01-22T11:40:18.668Z,15.75
2023-01-22T11:43:33.643Z,14.63
2023-01-22T11:46:50.279Z,14.27
2023-01-22T11:50:06.812Z,12.27
2023-01-22T11:53:31.111Z,12.07
2023-01-22T11:56:48.731Z,13.93
2023-01-22T12:00:23.046Z,12.80
2023-01-22T12:04:03.208Z,14.88
2023-01-22T12:07:42.392Z,12.48
2023-01-22T12:10:59.437Z,12.52
2023-01-22T12:14:32.194Z,13.10
2023-01-22T12:17:46.793Z,11.70
2023-01-22T12:21:05.871Z,12.75
2023-01-22T12:24:18.978Z,14.57
2023-01-22T12:27:26.274Z,16.23
2023-01-22T12:30:36.010Z,15.30
2023-01-22T12:33:40.534Z,14.35
2023-01-22T12:36:43.956Z,15.30
2023-01-22T12:39:55.275Z,15.45
2023-01-22T12:43:01.554Z,15.10
2023-01-22T12:46:11.872Z,16.02
2023-01-22T12:49:14.418Z,15.75
2023-01-22T12:52:36.462Z,16.40
2023-01-22T12:55:40.636Z,16.85
2023-01-22T12:58:43.399Z,16.38
2023-01-22T13:01:45.895Z,15.20
2023-01-22T13:04:47.708Z,13.40
2023-01-22T13:08:00.983Z,18.25
2023-01-22T13:11:06.461Z,17.58
2023-01-22T13:14:19.162Z,13.95
2023-01-22T13:17:24.526Z,24.92
2023-01-22T13:20:28.091Z,15.70
2023-01-22T13:23:31.621Z,14.02
2023-01-22T13:26:38.047Z,12.70
2023-01-22T13:29:40.243Z,12.02
2023-01-22T13:32:42.375Z,13.63
2023-01-22T13:35:47.674Z,14.13
2023-01-22T13:38:54.612Z,12.98
2023-01-22T13:42:00.031Z,13.00
2023-01-22T13:45:02.474Z,12.88
2023-01-22T13:48:05.480Z,12.05
2023-01-22T13:51:15.345Z,12.95
2023-01-22T13:54:24.474Z,12.85
2023-01-22T13:57:28.035Z,12.90
2023-01-22T14:00:31.927Z,13.23
2023-01-22T14:03:34.990Z,12.45
2023-01-22T14:06:44.461Z,13.07
2023-01-22T14:09:46.384Z,14.27
2023-01-22T14:13:03.134Z,14.05
2023-01-22T14:16:06.038Z,13.23
2023-01-22T14:19:08.855Z,13.27
2023-01-22T14:22:10.988Z,13.85
2023-01-22T14:25:13.268Z,13.35
2023-01-22T14:28:18.063Z,14.25
2023-01-22T14:31:20.490Z,15.23
2023-01-22T14:34:24.491Z,13.93
2023-01-22T14:37:29.201Z,17.75
2023-01-22T14:40:32.750Z,14.27
2023-01-22T14:43:36.679Z,15.75
2023-01-22T14:46:39.248Z,16.63
2023-01-22T14:49:42.259Z,15.85
2023-01-22T14:52:45.026Z,14.88
2023-01-22T14:55:47.095Z,15.80
2023-01-22T14:58:51.023Z,15.75
2023-01-22T15:01:54.006Z,16.38
2023-01-22T15:04:56.528Z,16.45
2023-01-22T15:07:58.707Z,17.65
2023-01-22T15:11:01.702Z,18.42
2023-01-22T15:14:05.645Z,18.30
2023-01-22T15:17:07.880Z,17.55
2023-01-22T15:20:12.180Z,20.33
2023-01-22T15:23:14.668Z,17.60
2023-01-22T15:26:25.435Z,16.27
2023-01-22T15:29:31.932Z,16.05
2023-01-22T15:32:34.093Z,20.77
2023-01-22T15:35:36.712Z,21.27
2023-01-22T15:38:39.045Z,33.20
2023-01-22T15:41:41.875Z,30.83
2023-01-22T15:44:46.491Z,20.85
2023-01-22T15:47:48.591Z,15.50
2023-01-22T15:50:51.561Z,14.77
2023-01-22T15:53:55.402Z,21.70
2023-01-22T15:56:58.130Z,14.40
2023-01-22T16:00:02.122Z,27.48
2023-01-22T16:03:06.415Z,42.22
2023-01-22T16:06:10.270Z,37.05
2023-01-22T16:09:12.980Z,27.48
2023-01-22T16:12:15.939Z,25.38
2023-01-22T16:15:19.748Z,22.45
2023-01-22T16:18:22.022Z,41.45
2023-01-22T16:21:25.047Z,43.90
2023-01-22T16:24:27.552Z,34.28
2023-01-22T16:27:32.613Z,22.52
2023-01-22T16:30:37.117Z,29.58
2023-01-22T16:33:43.235Z,39.22
2023-01-22T16:36:46.348Z,29.30
2023-01-22T16:39:48.845Z,21.85
2023-01-22T16:43:02.107Z,17.48
2023-01-22T16:46:06.047Z,14.90
2023-01-22T16:49:12.776Z,14.02
2023-01-22T16:52:22.529Z,14.75
2023-01-22T16:55:25.908Z,14.88
2023-01-22T16:58:29.739Z,21.45
2023-01-22T17:01:34.546Z,30.05
2023-01-22T17:04:36.999Z,28.65
2023-01-22T17:07:40.552Z,32.70
2023-01-22T17:10:43.051Z,27.90
2023-01-22T17:13:47.892Z,20.52
2023-01-22T17:16:52.071Z,20.77
2023-01-22T17:19:55.015Z,22.55
2023-01-22T17:22:59.405Z,33.88
2023-01-22T17:26:06.330Z,40.00
2023-01-22T17:29:09.448Z,39.58
2023-01-22T17:32:13.609Z,33.50
2023-01-22T17:35:17.277Z,18.80
2023-01-22T17:38:20.277Z,19.98
2023-01-22T17:41:25.331Z,28.08
2023-01-22T17:44:28.709Z,31.58
2023-01-22T17:47:33.456Z,29.52
2023-01-22T17:50:36.083Z,33.42
2023-01-22T17:53:41.879Z,29.42
2023-01-22T17:56:44.603Z,24.58
2023-01-22T17:59:47.390Z,24.27
2023-01-22T18:02:51.819Z,23.63
2023-01-22T18:05:54.521Z,25.20
2023-01-22T18:08:58.026Z,26.73
2023-01-22T18:12:01.049Z,29.10
2023-01-22T18:15:04.271Z,30.02
2023-01-22T18:18:09.054Z,32.53
2023-01-22T18:21:16.011Z,33.70
2023-01-22T18:24:22.752Z,32.42
2023-01-22T18:27:26.230Z,30.83
2023-01-22T18:30:29.847Z,30.38
2023-01-22T18:33:34.583Z,26.25
2023-01-22T18:36:39.325Z,23.75
2023-01-22T18:39:42.681Z,22.02
2023-01-22T18:42:45.798Z,19.35
2023-01-22T18:45:48.364Z,17.58
2023-01-22T18:48:55.709Z,20.95
2023-01-22T18:51:58.195Z,22.30
2023-01-22T18:55:00.970Z,21.58
2023-01-22T18:58:03.803Z,21.23
2023-01-22T19:01:12.872Z,21.73
2023-01-22T19:04:18.408Z,21.45
2023-01-22T19:07:21.135Z,21.10
2023-01-22T19:10:24.339Z,21.25
2023-01-22T19:13:28.367Z,20.58
2023-01-22T19:16:31.818Z,22.02
2023-01-22T19:19:36.777Z,22.92
2023-01-22T19:22:39.612Z,22.33
2023-01-22T19:25:42.678Z,21.42
2023-01-22T19:28:45.645Z,21.48
2023-01-22T19:31:50.557Z,19.85
2023-01-22T19:34:55.596Z,19.42
2023-01-22T19:37:58.732Z,18.75
2023-01-22T19:41:01.637Z,22.73
2023-01-22T19:44:04.804Z,22.60
2023-01-22T19:47:07.557Z,21.52
2023-01-22T19:50:14.930Z,20.35
2023-01-22T19:53:17.712Z,21.95
2023-01-22T19:56:23.812Z,22.15
2023-01-22T19:59:27.823Z,21.40
2023-01-22T20:02:31.307Z,22.98
2023-01-22T20:05:39.631Z,21.23
2023-01-22T20:08:43.262Z,15.57
2023-01-22T20:11:54.956Z,21.80
2023-01-22T20:14:57.608Z,22.17
2023-01-22T20:18:00.392Z,21.48
2023-01-22T20:21:05.207Z,23.08
2023-01-22T20:24:09.693Z,22.45
2023-01-22T20:27:12.413Z,23.15
2023-01-22T20:30:16.121Z,22.23
2023-01-22T20:33:18.647Z,23.40
2023-01-22T20:36:24.335Z,24.40
2023-01-22T20:39:27.135Z,22.25
2023-01-22T20:42:30.354Z,21.77
2023-01-22T20:45:33.352Z,21.85
2023-01-22T20:48:37.576Z,25.20
2023-01-22T20:51:42.752Z,22.02
2023-01-22T20:55:00.573Z,27.80
2023-01-22T20:58:04.790Z,46.03
2023-01-22T21:01:09.561Z,31.88
2023-01-22T21:04:14.856Z,20.23
2023-01-22T21:07:19.814Z,21.85
2023-01-22T21:10:22.832Z,19.10
2023-01-22T21:13:26.097Z,19.98
2023-01-22T21:16:31.659Z,17.98
2023-01-22T21:19:35.006Z,17.45
2023-01-22T21:22:39.545Z,19.15
2023-01-22T21:25:41.932Z,20.42
2023-01-22T21:28:44.283Z,22.58
2023-01-22T21:31:48.194Z,29.60
2023-01-22T21:34:50.699Z,117.63
2023-01-22T21:37:54.716Z,148.35
2023-01-22T21:41:04.401Z,135.88
2023-01-22T21:44:06.712Z,132.32
2023-01-22T21:47:08.971Z,80.47
2023-01-22T21:50:11.846Z,63.47
2023-01-22T21:53:15.095Z,44.13
2023-01-22T21:56:16.898Z,58.78
2023-01-22T21:59:19.585Z,41.17
2023-01-22T22:02:21.646Z,23.33
2023-01-22T22:05:23.482Z,22.17
2023-01-22T22:08:26.642Z,27.48
2023-01-22T22:11:28.718Z,20.65
2023-01-22T22:14:30.845Z,17.88
2023-01-22T22:17:32.598Z,16.60
2023-01-22T22:20:34.467Z,18.15
2023-01-22T22:23:37.833Z,19.85
2023-01-22T22:26:40.026Z,19.48
2023-01-22T22:29:41.824Z,18.92
2023-01-22T22:32:43.630Z,18.33
2023-01-22T22:35:46.190Z,18.75
2023-01-22T22:38:49.618Z,17.52
2023-01-22T22:41:51.377Z,18.13
2023-01-22T22:44:53.166Z,18.55
2023-01-22T22:47:55.011Z,20.27
2023-01-22T22:50:56.932Z,18.67
2023-01-22T22:54:01.977Z,20.63
2023-01-22T22:57:03.937Z,19.67
2023-01-22T23:00:10.098Z,20.17
2023-01-22T23:03:11.981Z,18.98
2023-01-22T23:06:16.117Z,18.83
2023-01-22T23:09:20.624Z,20.35
2023-01-22T23:12:22.397Z,19.23
2023-01-22T23:15:25.088Z,20.08
2023-01-22T23:18:26.909Z,20.20
2023-01-22T23:21:28.998Z,20.77
2023-01-22T23:24:32.209Z,19.52
2023-01-22T23:27:33.997Z,18.75
2023-01-22T23:30:35.952Z,19.35
2023-01-22T23:33:38.270Z,19.02
2023-01-22T23:36:41.468Z,19.13
2023-01-22T23:39:44.880Z,18.85
2023-01-22T23:42:48.250Z,18.55
2023-01-22T23:45:50.107Z,19.15
2023-01-22T23:48:52.190Z,19.00
2023-01-22T23:51:54.015Z,18.75
2023-01-22T23:54:57.160Z,17.70
2023-01-22T23:57:58.903Z,18.48
